Time;durP1;ratioP1;P1;durP2;ratioP2;P2;SDS_P1;SDS_P2;PMS_P1;PMS_P2;Temp;Humidity;BMP_temperature;BMP_pressure;BME280_temperature;BME280_humidity;BME280_pressure;Samples;Min_cycle;Max_cycle;Signal;HPM_P1;HPM_P2
2024/01/25 00:00:20;;;;;;;12.75;6.40;;;;;;;;;;5131530;27;20047;-73
2024/01/25 00:02:47;;;;;;;10.00;6.18;;;;;;;;;;5113174;27;20039;-73
2024/01/25 00:05:14;;;;;;;11.98;5.97;;;;;;;;;;5131557;27;20035;-73
2024/01/25 00:07:48;;;;;;;11.43;6.53;;;;;;;;;;5131202;27;20043;-74
2024/01/25 00:10:17;;;;;;;12.68;6.70;;;;;;;;;;5113202;27;20127;-75
2024/01/25 00:12:44;;;;;;;12.90;6.97;;;;;;;;;;5131345;27;20058;-74
2024/01/25 00:15:13;;;;;;;10.63;6.15;;;;;;;;;;5131538;27;20134;-74
2024/01/25 00:17:40;;;;;;;11.30;6.05;;;;;;;;;;5131030;27;20073;-74
2024/01/25 00:20:09;;;;;;;10.95;5.95;;;;;;;;;;5131155;27;20047;-74
2024/01/25 00:22:38;;;;;;;10.27;5.93;;;;;;;;;;5132461;27;20054;-74
2024/01/25 00:25:05;;;;;;;11.10;5.82;;;;;;;;;;5130788;27;20127;-74
2024/01/25 00:27:32;;;;;;;10.68;5.53;;;;;;;;;;5133539;27;20116;-73
2024/01/25 00:30:00;;;;;;;11.40;6.00;;;;;;;;;;5134907;27;20081;-74
2024/01/25 00:32:27;;;;;;;10.48;6.10;;;;;;;;;;5131299;27;20054;-73
2024/01/25 00:34:54;;;;;;;13.13;5.80;;;;;;;;;;5136130;27;20050;-73
2024/01/25 00:37:21;;;;;;;11.95;6.18;;;;;;;;;;5135534;27;20502;-73
2024/01/25 00:39:49;;;;;;;11.55;5.70;;;;;;;;;;5133164;27;20043;-73
2024/01/25 00:42:20;;;;;;;9.68;5.30;;;;;;;;;;5118471;27;20051;-73
2024/01/25 00:44:47;;;;;;;9.35;5.07;;;;;;;;;;5131712;27;20091;-73
2024/01/25 00:47:14;;;;;;;9.90;5.20;;;;;;;;;;5134847;27;20072;-73
2024/01/25 00:49:41;;;;;;;9.00;5.00;;;;;;;;;;5132675;27;20552;-73
2024/01/25 00:52:08;;;;;;;9.45;5.45;;;;;;;;;;5131891;27;20047;-73
2024/01/25 00:54:35;;;;;;;10.88;5.60;;;;;;;;;;5115945;27;20114;-73
2024/01/25 00:57:02;;;;;;;9.20;5.20;;;;;;;;;;5136262;27;20039;-74
2024/01/25 00:59:29;;;;;;;9.30;5.00;;;;;;;;;;5137793;27;20058;-73
2024/01/25 01:01:58;;;;;;;8.13;4.88;;;;;;;;;;5135494;27;20111;-73
2024/01/25 01:04:26;;;;;;;7.43;4.65;;;;;;;;;;5134603;27;20061;-73
2024/01/25 01:06:53;;;;;;;10.35;5.22;;;;;;;;;;5135028;27;20050;-73
2024/01/25 01:09:20;;;;;;;7.22;4.72;;;;;;;;;;5132620;27;20104;-73
2024/01/25 01:11:47;;;;;;;7.90;4.72;;;;;;;;;;5135002;27;20421;-73
2024/01/25 01:14:13;;;;;;;8.43;5.03;;;;;;;;;;5135088;27;20050;-73
2024/01/25 01:16:40;;;;;;;8.02;4.50;;;;;;;;;;5112702;27;20046;-73
2024/01/25 01:19:07;;;;;;;8.45;4.47;;;;;;;;;;5132229;27;20043;-73
2024/01/25 01:21:35;;;;;;;8.30;4.85;;;;;;;;;;5130913;27;20116;-73
2024/01/25 01:24:02;;;;;;;8.18;4.72;;;;;;;;;;5134859;27;20047;-73
2024/01/25 01:26:29;;;;;;;8.90;4.70;;;;;;;;;;5130199;27;20050;-73
2024/01/25 01:28:56;;;;;;;7.60;4.57;;;;;;;;;;5130621;27;20051;-73
2024/01/25 01:31:23;;;;;;;7.75;4.32;;;;;;;;;;5129575;27;20499;-74
2024/01/25 01:33:49;;;;;;;8.23;4.63;;;;;;;;;;5132486;27;20083;-73
2024/01/25 01:36:16;;;;;;;7.45;4.45;;;;;;;;;;5130160;27;20035;-73
2024/01/25 01:38:43;;;;;;;8.65;5.13;;;;;;;;;;5132320;27;20329;-73
2024/01/25 01:41:13;;;;;;;8.30;4.25;;;;;;;;;;5130784;27;20046;-73
2024/01/25 01:43:40;;;;;;;7.73;4.70;;;;;;;;;;5130127;27;20070;-73
2024/01/25 01:46:12;;;;;;;6.82;4.15;;;;;;;;;;5129517;27;20043;-73
2024/01/25 01:48:40;;;;;;;7.45;4.80;;;;;;;;;;5129263;27;20043;-73
2024/01/25 01:51:07;;;;;;;7.28;4.43;;;;;;;;;;5129699;27;20054;-73
2024/01/25 01:53:34;;;;;;;7.40;4.78;;;;;;;;;;5129728;27;20047;-73
2024/01/25 01:56:01;;;;;;;7.45;4.53;;;;;;;;;;5129257;27;20533;-73
2024/01/25 01:58:28;;;;;;;7.85;4.30;;;;;;;;;;5129559;27;20058;-73
2024/01/25 02:00:55;;;;;;;8.07;4.63;;;;;;;;;;5129454;27;20046;-73
2024/01/25 02:03:22;;;;;;;8.00;4.65;;;;;;;;;;5131204;27;20122;-73
2024/01/25 02:05:49;;;;;;;9.45;5.38;;;;;;;;;;5129457;28;20047;-73
2024/01/25 02:08:17;;;;;;;7.95;4.88;;;;;;;;;;5130682;28;20152;-73
2024/01/25 02:10:44;;;;;;;7.93;5.03;;;;;;;;;;5130380;28;20062;-73
2024/01/25 02:13:10;;;;;;;9.45;5.30;;;;;;;;;;5131249;28;20487;-73
2024/01/25 02:15:37;;;;;;;8.35;4.97;;;;;;;;;;5130395;28;20043;-74
2024/01/25 02:18:05;;;;;;;8.70;5.00;;;;;;;;;;5132180;28;20105;-74
2024/01/25 02:20:31;;;;;;;8.13;4.35;;;;;;;;;;5129222;28;20112;-73
2024/01/25 02:22:58;;;;;;;7.60;4.60;;;;;;;;;;5129343;28;20047;-73
2024/01/25 02:25:25;;;;;;;7.05;4.70;;;;;;;;;;5128793;28;20134;-73
2024/01/25 02:27:52;;;;;;;8.02;4.88;;;;;;;;;;5129189;28;20047;-73
2024/01/25 02:30:19;;;;;;;8.27;4.95;;;;;;;;;;5129019;28;20494;-73
2024/01/25 02:32:46;;;;;;;8.88;5.18;;;;;;;;;;5129506;28;20102;-73
2024/01/25 02:35:13;;;;;;;9.48;5.22;;;;;;;;;;5129387;28;20092;-73
2024/01/25 02:37:40;;;;;;;10.27;5.50;;;;;;;;;;5129505;28;20051;-73
2024/01/25 02:40:07;;;;;;;8.77;5.20;;;;;;;;;;5110052;28;20104;-73
2024/01/25 02:42:34;;;;;;;10.00;5.50;;;;;;;;;;5132161;28;20047;-73
2024/01/25 02:45:01;;;;;;;10.13;5.55;;;;;;;;;;5128987;28;20507;-73
2024/01/25 02:47:28;;;;;;;8.80;4.88;;;;;;;;;;5129096;28;20039;-74
2024/01/25 02:49:54;;;;;;;9.73;5.20;;;;;;;;;;5129995;28;20043;-73
2024/01/25 02:52:21;;;;;;;9.63;5.43;;;;;;;;;;5129640;28;20047;-73
2024/01/25 02:54:49;;;;;;;9.40;5.28;;;;;;;;;;5116774;28;20050;-73
2024/01/25 02:57:18;;;;;;;10.57;5.78;;;;;;;;;;5133624;28;20158;-74
2024/01/25 02:59:44;;;;;;;11.32;5.97;;;;;;;;;;5140737;28;20043;-74
2024/01/25 03:02:11;;;;;;;11.75;5.90;;;;;;;;;;5140786;27;20114;-73
2024/01/25 03:04:38;;;;;;;10.52;6.13;;;;;;;;;;5140731;28;20319;-73
2024/01/25 03:07:05;;;;;;;13.10;5.97;;;;;;;;;;5140990;28;20047;-74
2024/01/25 03:09:31;;;;;;;12.23;6.40;;;;;;;;;;5140063;28;20270;-73
2024/01/25 03:11:59;;;;;;;11.38;5.88;;;;;;;;;;5140381;28;20051;-73
2024/01/25 03:14:26;;;;;;;9.52;5.90;;;;;;;;;;5124706;27;20106;-73
2024/01/25 03:16:53;;;;;;;10.10;5.82;;;;;;;;;;5144395;27;20043;-73
2024/01/25 03:19:20;;;;;;;8.57;4.97;;;;;;;;;;5143961;27;20039;-73
2024/01/25 03:21:46;;;;;;;9.48;5.55;;;;;;;;;;5144062;27;20324;-73
2024/01/25 03:24:13;;;;;;;11.73;5.60;;;;;;;;;;5143676;27;20039;-73
2024/01/25 03:26:40;;;;;;;10.15;5.88;;;;;;;;;;5144157;27;20049;-73
2024/01/25 03:29:07;;;;;;;9.50;5.45;;;;;;;;;;5143933;27;20053;-73
2024/01/25 03:31:35;;;;;;;10.55;5.57;;;;;;;;;;5144005;27;20047;-73
2024/01/25 03:34:02;;;;;;;9.80;5.63;;;;;;;;;;5143673;27;20051;-73
2024/01/25 03:36:29;;;;;;;9.43;5.18;;;;;;;;;;5126067;27;20077;-73
2024/01/25 03:38:57;;;;;;;10.15;5.57;;;;;;;;;;5143473;27;20043;-73
2024/01/25 03:41:24;;;;;;;10.60;5.53;;;;;;;;;;5143918;27;20047;-74
2024/01/25 03:43:51;;;;;;;9.60;5.40;;;;;;;;;;5143619;27;20352;-73
2024/01/25 03:46:18;;;;;;;10.52;5.97;;;;;;;;;;5143570;27;20074;-74
2024/01/25 03:48:45;;;;;;;10.85;6.22;;;;;;;;;;5143609;27;20088;-73
2024/01/25 03:51:12;;;;;;;11.68;5.50;;;;;;;;;;5143346;27;20043;-74
2024/01/25 03:53:39;;;;;;;11.70;5.85;;;;;;;;;;5143545;27;20057;-73
2024/01/25 03:56:13;;;;;;;9.52;5.40;;;;;;;;;;5143046;27;20114;-73
2024/01/25 03:58:40;;;;;;;12.65;5.80;;;;;;;;;;5143656;27;20047;-73
2024/01/25 04:01:06;;;;;;;10.38;5.00;;;;;;;;;;5143192;27;20047;-73
2024/01/25 04:03:34;;;;;;;8.70;5.32;;;;;;;;;;5143234;27;20043;-74
2024/01/25 04:06:01;;;;;;;10.70;5.05;;;;;;;;;;5143167;27;20043;-74
2024/01/25 04:08:28;;;;;;;10.00;5.03;;;;;;;;;;5143193;27;20066;-74
2024/01/25 04:10:55;;;;;;;9.82;4.85;;;;;;;;;;5142421;27;20078;-73
2024/01/25 04:13:22;;;;;;;10.48;4.80;;;;;;;;;;5143100;27;20047;-74
2024/01/25 04:15:48;;;;;;;9.05;4.65;;;;;;;;;;5143038;27;20239;-74
2024/01/25 04:18:15;;;;;;;9.63;4.55;;;;;;;;;;5142153;27;20212;-74
2024/01/25 04:20:43;;;;;;;9.73;5.22;;;;;;;;;;5142744;27;20118;-74
2024/01/25 04:23:10;;;;;;;9.20;4.70;;;;;;;;;;5143321;27;20055;-74
2024/01/25 04:25:37;;;;;;;8.77;4.93;;;;;;;;;;5141364;27;20305;-74
2024/01/25 04:28:05;;;;;;;9.88;4.95;;;;;;;;;;5143149;27;20119;-74
2024/01/25 04:30:32;;;;;;;9.10;5.00;;;;;;;;;;5142400;27;20053;-74
2024/01/25 04:32:59;;;;;;;9.93;5.20;;;;;;;;;;5142728;27;20058;-74
2024/01/25 04:35:27;;;;;;;11.23;5.60;;;;;;;;;;5142799;27;20049;-73
2024/01/25 04:37:53;;;;;;;11.27;5.90;;;;;;;;;;5142448;27;20061;-73
2024/01/25 04:40:20;;;;;;;10.98;5.70;;;;;;;;;;5142175;27;20411;-73
2024/01/25 04:42:47;;;;;;;10.73;5.55;;;;;;;;;;5142475;27;20300;-73
2024/01/25 04:45:14;;;;;;;9.63;4.90;;;;;;;;;;5142733;27;20065;-73
2024/01/25 04:47:40;;;;;;;9.95;5.28;;;;;;;;;;5142322;27;20415;-73
2024/01/25 04:50:07;;;;;;;11.73;5.47;;;;;;;;;;5142348;27;20315;-73
2024/01/25 04:52:34;;;;;;;11.40;5.45;;;;;;;;;;5142239;27;20058;-73
2024/01/25 04:55:01;;;;;;;9.98;4.97;;;;;;;;;;5142308;27;20047;-73
2024/01/25 04:57:28;;;;;;;8.52;4.95;;;;;;;;;;5142380;27;20394;-73
2024/01/25 04:59:54;;;;;;;9.00;4.95;;;;;;;;;;5142234;27;20051;-73
2024/01/25 05:02:21;;;;;;;7.88;4.22;;;;;;;;;;5142330;27;20351;-73
2024/01/25 05:04:48;;;;;;;8.60;4.65;;;;;;;;;;5142331;27;20106;-73
2024/01/25 05:07:15;;;;;;;7.03;4.15;;;;;;;;;;5142018;27;20402;-73
2024/01/25 05:09:42;;;;;;;7.53;4.55;;;;;;;;;;5141907;27;20047;-73
2024/01/25 05:12:09;;;;;;;7.13;4.32;;;;;;;;;;5141696;27;20050;-73
2024/01/25 05:14:36;;;;;;;7.72;4.13;;;;;;;;;;5142169;27;20057;-73
2024/01/25 05:17:03;;;;;;;8.35;4.75;;;;;;;;;;5141818;27;20050;-73
2024/01/25 05:19:29;;;;;;;8.32;4.40;;;;;;;;;;5141975;27;20270;-73
2024/01/25 05:21:56;;;;;;;7.05;4.40;;;;;;;;;;5123334;27;20310;-73
2024/01/25 05:24:23;;;;;;;7.45;4.32;;;;;;;;;;5141387;27;20043;-73
2024/01/25 05:26:50;;;;;;;8.88;4.25;;;;;;;;;;5141627;27;20073;-73
2024/01/25 05:29:17;;;;;;;8.00;4.25;;;;;;;;;;5141781;27;20039;-73
2024/01/25 05:31:43;;;;;;;7.80;3.85;;;;;;;;;;5123748;27;20047;-73
2024/01/25 05:34:10;;;;;;;10.75;4.50;;;;;;;;;;5141334;27;20035;-73
2024/01/25 05:36:37;;;;;;;8.18;4.30;;;;;;;;;;5141122;27;20049;-73
2024/01/25 05:39:06;;;;;;;7.45;4.15;;;;;;;;;;5141095;27;20115;-73
2024/01/25 05:41:33;;;;;;;7.88;4.25;;;;;;;;;;5141346;27;20070;-73
2024/01/25 05:44:00;;;;;;;6.60;4.25;;;;;;;;;;5141552;27;20077;-73
2024/01/25 05:46:27;;;;;;;7.95;4.00;;;;;;;;;;5141358;27;20599;-73
2024/01/25 05:48:53;;;;;;;7.68;4.18;;;;;;;;;;5141337;27;20051;-73
2024/01/25 05:51:20;;;;;;;7.65;4.28;;;;;;;;;;5141209;27;20323;-73
2024/01/25 05:53:47;;;;;;;8.45;4.43;;;;;;;;;;5141605;27;20106;-73
2024/01/25 05:56:14;;;;;;;6.90;4.00;;;;;;;;;;5140750;27;20323;-73
2024/01/25 05:58:40;;;;;;;8.20;4.50;;;;;;;;;;5141562;27;20043;-73
2024/01/25 06:01:08;;;;;;;7.13;4.07;;;;;;;;;;5141632;27;20043;-73
2024/01/25 06:03:35;;;;;;;7.45;4.10;;;;;;;;;;5141113;27;20073;-73
2024/01/25 06:06:02;;;;;;;8.68;4.22;;;;;;;;;;5141524;28;20043;-73
2024/01/25 06:08:29;;;;;;;6.88;4.22;;;;;;;;;;5123044;28;20062;-73
2024/01/25 06:10:56;;;;;;;6.70;3.90;;;;;;;;;;5140640;28;20081;-74
2024/01/25 06:13:22;;;;;;;8.05;4.07;;;;;;;;;;5141022;28;20047;-73
2024/01/25 06:15:49;;;;;;;7.75;4.32;;;;;;;;;;5141264;28;20055;-73
2024/01/25 06:18:17;;;;;;;7.57;3.97;;;;;;;;;;5141445;28;20114;-73
2024/01/25 06:20:44;;;;;;;8.48;4.40;;;;;;;;;;5140801;28;20043;-75
2024/01/25 06:23:10;;;;;;;7.07;4.13;;;;;;;;;;5141172;28;20381;-74
2024/01/25 06:25:37;;;;;;;7.55;4.13;;;;;;;;;;5140669;28;20087;-74
2024/01/25 06:28:04;;;;;;;8.60;5.00;;;;;;;;;;5141137;28;20092;-73
2024/01/25 06:30:30;;;;;;;7.18;4.00;;;;;;;;;;5141157;28;20043;-73
2024/01/25 06:32:57;;;;;;;9.95;4.97;;;;;;;;;;5141461;28;20055;-76
2024/01/25 06:35:24;;;;;;;8.05;4.40;;;;;;;;;;5141701;28;20043;-73
2024/01/25 06:37:52;;;;;;;8.07;4.60;;;;;;;;;;5141147;28;20106;-73
2024/01/25 06:40:18;;;;;;;9.50;4.53;;;;;;;;;;5141205;28;20047;-73
2024/01/25 06:42:45;;;;;;;8.30;4.50;;;;;;;;;;5140929;28;20080;-74
2024/01/25 06:45:12;;;;;;;7.78;4.25;;;;;;;;;;5140828;28;20111;-74
2024/01/25 06:47:39;;;;;;;7.75;4.55;;;;;;;;;;5140887;27;20050;-74
2024/01/25 06:50:08;;;;;;;8.27;4.50;;;;;;;;;;5144231;27;20096;-72
2024/01/25 06:52:35;;;;;;;6.85;4.35;;;;;;;;;;5144497;27;20046;-75
2024/01/25 06:55:01;;;;;;;8.52;4.80;;;;;;;;;;5143969;27;20051;-75
2024/01/25 06:57:29;;;;;;;9.00;4.50;;;;;;;;;;5143948;27;20082;-75
2024/01/25 06:59:55;;;;;;;7.85;4.18;;;;;;;;;;5134776;27;20062;-74
2024/01/25 07:02:22;;;;;;;8.48;4.47;;;;;;;;;;5133003;27;20542;-74
2024/01/25 07:04:52;;;;;;;8.88;4.35;;;;;;;;;;5132314;27;20139;-74
2024/01/25 07:07:20;;;;;;;8.48;4.55;;;;;;;;;;5133303;27;20051;-74
2024/01/25 07:09:46;;;;;;;8.85;4.88;;;;;;;;;;5133714;27;20130;-74
2024/01/25 07:12:13;;;;;;;8.77;4.80;;;;;;;;;;5133308;27;20055;-73
2024/01/25 07:14:40;;;;;;;9.30;4.75;;;;;;;;;;5134607;27;20069;-74
2024/01/25 07:17:07;;;;;;;10.55;4.38;;;;;;;;;;5134583;27;20415;-73
2024/01/25 07:19:34;;;;;;;9.70;4.90;;;;;;;;;;5132596;27;20043;-74
2024/01/25 07:22:01;;;;;;;9.95;5.30;;;;;;;;;;5131674;27;20510;-72
2024/01/25 07:24:27;;;;;;;9.15;4.85;;;;;;;;;;5131697;27;20039;-72
2024/01/25 07:26:54;;;;;;;12.00;5.32;;;;;;;;;;5132392;27;20115;-73
2024/01/25 07:29:22;;;;;;;12.07;5.28;;;;;;;;;;5137968;27;20088;-73
2024/01/25 07:31:49;;;;;;;10.52;5.43;;;;;;;;;;5140667;27;20072;-73
2024/01/25 07:34:16;;;;;;;12.18;6.30;;;;;;;;;;5137851;27;20464;-73
2024/01/25 07:40:06;;;;;;;11.20;5.20;;;;;;;;;;5134658;27;20039;-74
2024/01/25 07:42:33;;;;;;;12.23;5.53;;;;;;;;;;5140368;27;20050;-72
2024/01/25 07:45:00;;;;;;;10.75;5.40;;;;;;;;;;5140414;27;20065;-73
2024/01/25 07:47:27;;;;;;;10.25;4.82;;;;;;;;;;5136863;27;20550;-72
2024/01/25 07:49:54;;;;;;;11.68;5.15;;;;;;;;;;5140455;27;20217;-74
2024/01/25 07:52:21;;;;;;;11.15;5.18;;;;;;;;;;5137125;27;20050;-73
2024/01/25 07:54:53;;;;;;;9.77;4.72;;;;;;;;;;5141099;27;20143;-74
2024/01/25 07:57:20;;;;;;;10.75;4.72;;;;;;;;;;5115168;27;20045;-76
2024/01/25 07:59:47;;;;;;;8.38;4.50;;;;;;;;;;5113461;27;20047;-78
2024/01/25 08:02:14;;;;;;;7.65;4.38;;;;;;;;;;5131526;27;20062;-77
2024/01/25 08:04:45;;;;;;;7.35;3.97;;;;;;;;;;5132151;27;20099;-77
2024/01/25 08:07:12;;;;;;;7.13;3.80;;;;;;;;;;5131813;27;20043;-76
2024/01/25 08:09:39;;;;;;;8.25;4.10;;;;;;;;;;5135825;27;20205;-74
2024/01/25 08:12:06;;;;;;;6.15;3.53;;;;;;;;;;5142873;27;20146;-78
2024/01/25 08:14:33;;;;;;;7.80;3.85;;;;;;;;;;5124899;27;20331;-78
2024/01/25 08:17:00;;;;;;;6.57;4.03;;;;;;;;;;5143324;27;20047;-79
2024/01/25 08:19:27;;;;;;;7.65;3.90;;;;;;;;;;5142860;27;20132;-79
2024/01/25 08:21:54;;;;;;;6.20;3.47;;;;;;;;;;5142729;27;20126;-78
2024/01/25 08:24:20;;;;;;;6.13;3.70;;;;;;;;;;5142498;27;20417;-78
2024/01/25 08:26:47;;;;;;;6.22;3.58;;;;;;;;;;5143134;27;20106;-77
2024/01/25 08:29:14;;;;;;;7.38;3.72;;;;;;;;;;5142768;27;20212;-78
2024/01/25 08:31:40;;;;;;;6.75;4.00;;;;;;;;;;5124549;27;20363;-77
2024/01/25 08:34:08;;;;;;;7.47;3.50;;;;;;;;;;5142608;27;20087;-78
2024/01/25 08:36:35;;;;;;;5.38;3.38;;;;;;;;;;5142736;27;20075;-79
2024/01/25 08:39:03;;;;;;;6.28;3.10;;;;;;;;;;5124074;27;20043;-77
2024/01/25 08:41:31;;;;;;;15.60;3.95;;;;;;;;;;5137827;27;20051;-78
2024/01/25 08:43:58;;;;;;;13.48;2.92;;;;;;;;;;5127821;27;20107;-77
2024/01/25 08:46:25;;;;;;;12.18;3.30;;;;;;;;;;5140727;27;20127;-76
2024/01/25 08:48:52;;;;;;;11.20;3.63;;;;;;;;;;5141109;27;20094;-77
2024/01/25 08:51:19;;;;;;;34.47;4.45;;;;;;;;;;5142005;27;20080;-77
2024/01/25 08:53:46;;;;;;;18.50;3.47;;;;;;;;;;5122841;27;20051;-78
2024/01/25 08:56:13;;;;;;;15.40;3.30;;;;;;;;;;5141640;27;20088;-76
2024/01/25 08:58:39;;;;;;;19.55;3.63;;;;;;;;;;5142102;27;20043;-76
2024/01/25 09:01:06;;;;;;;10.57;3.53;;;;;;;;;;5142425;27;20066;-76
2024/01/25 09:03:33;;;;;;;14.68;4.22;;;;;;;;;;5142167;27;20092;-76
2024/01/25 09:06:05;;;;;;;9.88;3.40;;;;;;;;;;5142329;27;20063;-77
2024/01/25 09:08:33;;;;;;;15.25;3.65;;;;;;;;;;5124605;27;20082;-78
2024/01/25 09:11:00;;;;;;;10.20;3.50;;;;;;;;;;5141206;27;20104;-79
2024/01/25 09:13:27;;;;;;;17.92;3.70;;;;;;;;;;5141591;27;20043;-78
2024/01/25 09:15:54;;;;;;;25.45;4.13;;;;;;;;;;5141953;27;20418;-78
2024/01/25 09:18:21;;;;;;;9.88;3.25;;;;;;;;;;5141902;27;20344;-75
2024/01/25 09:20:48;;;;;;;16.33;3.92;;;;;;;;;;5141947;27;20051;-78
2024/01/25 09:23:16;;;;;;;16.70;4.10;;;;;;;;;;5141838;27;20106;-77
2024/01/25 09:25:44;;;;;;;14.95;3.50;;;;;;;;;;5141392;27;20338;-77
2024/01/25 09:28:14;;;;;;;16.05;3.33;;;;;;;;;;5141746;27;20043;-76
2024/01/25 09:30:42;;;;;;;11.85;3.53;;;;;;;;;;5141894;27;20043;-76
2024/01/25 09:33:09;;;;;;;5.13;2.80;;;;;;;;;;5141405;27;20100;-76
2024/01/25 09:35:36;;;;;;;6.53;2.70;;;;;;;;;;5141371;27;20051;-78
2024/01/25 09:38:03;;;;;;;31.35;4.90;;;;;;;;;;5141659;27;20087;-78
2024/01/25 09:40:30;;;;;;;13.18;3.00;;;;;;;;;;5139456;27;20046;-78
2024/01/25 09:42:57;;;;;;;9.25;2.60;;;;;;;;;;5123028;27;20042;-78
2024/01/25 09:45:26;;;;;;;6.00;3.33;;;;;;;;;;5139989;27;20047;-77
2024/01/25 09:47:52;;;;;;;7.88;3.17;;;;;;;;;;5141578;27;20043;-77
2024/01/25 09:50:20;;;;;;;9.20;3.20;;;;;;;;;;5141642;27;20043;-76
2024/01/25 09:52:57;;;;;;;6.70;3.35;;;;;;;;;;5141341;27;20096;-77
2024/01/25 09:55:27;;;;;;;8.98;2.75;;;;;;;;;;5140978;27;20327;-76
2024/01/25 09:57:57;;;;;;;7.20;2.50;;;;;;;;;;5141258;27;20106;-77
2024/01/25 10:00:24;;;;;;;4.47;2.70;;;;;;;;;;5141142;27;20394;-76
2024/01/25 10:02:53;;;;;;;5.55;3.20;;;;;;;;;;5140732;27;20046;-77
2024/01/25 10:05:20;;;;;;;3.85;2.55;;;;;;;;;;5141230;27;20102;-76
2024/01/25 10:07:48;;;;;;;7.05;3.40;;;;;;;;;;5141214;27;20112;-77
2024/01/25 10:10:15;;;;;;;9.98;2.97;;;;;;;;;;5140649;28;20047;-77
2024/01/25 10:12:43;;;;;;;15.57;3.08;;;;;;;;;;5141038;28;20043;-77
2024/01/25 10:15:10;;;;;;;5.40;2.80;;;;;;;;;;5140915;27;20073;-76
2024/01/25 10:17:39;;;;;;;4.35;2.47;;;;;;;;;;5140991;28;20044;-77
2024/01/25 10:20:27;;;;;;;5.32;2.40;;;;;;;;;;5140843;28;20039;-77
2024/01/25 10:22:58;;;;;;;5.45;2.03;;;;;;;;;;5142225;27;20106;-76
2024/01/25 10:25:26;;;;;;;4.63;2.00;;;;;;;;;;5144853;27;20684;-78
2024/01/25 10:27:54;;;;;;;3.15;1.98;;;;;;;;;;5144800;27;20058;-73
2024/01/25 10:30:21;;;;;;;5.70;2.35;;;;;;;;;;5145050;27;20046;-74
2024/01/25 10:32:50;;;;;;;7.60;2.38;;;;;;;;;;5144836;27;20039;-75
2024/01/25 10:35:18;;;;;;;6.70;2.17;;;;;;;;;;5144975;27;20220;-73
2024/01/25 10:37:51;;;;;;;4.15;1.90;;;;;;;;;;5145140;27;20053;-75
2024/01/25 10:40:21;;;;;;;9.80;2.78;;;;;;;;;;5144887;27;20043;-75
2024/01/25 10:42:49;;;;;;;8.45;2.97;;;;;;;;;;5144931;27;20051;-74
2024/01/25 10:45:16;;;;;;;7.07;3.20;;;;;;;;;;5145037;27;20043;-75
2024/01/25 10:47:44;;;;;;;5.88;2.90;;;;;;;;;;5145006;27;20115;-77
2024/01/25 10:50:13;;;;;;;10.25;2.97;;;;;;;;;;5138460;27;20070;-76
2024/01/25 10:52:41;;;;;;;47.25;4.75;;;;;;;;;;5132808;27;20491;-76
2024/01/25 10:55:12;;;;;;;9.20;2.80;;;;;;;;;;5136605;27;20090;-74
2024/01/25 10:57:42;;;;;;;7.30;2.80;;;;;;;;;;5144743;27;20050;-74
2024/01/25 11:00:12;;;;;;;13.32;3.55;;;;;;;;;;5125072;27;20048;-77
2024/01/25 11:02:39;;;;;;;25.45;3.35;;;;;;;;;;5131191;27;20050;-74
2024/01/25 11:05:17;;;;;;;27.38;3.40;;;;;;;;;;5137559;27;20300;-74
2024/01/25 11:07:46;;;;;;;22.15;3.00;;;;;;;;;;5138380;27;20274;-74
2024/01/25 11:10:18;;;;;;;14.98;3.35;;;;;;;;;;5123686;27;20074;-76
2024/01/25 11:13:03;;;;;;;8.95;2.60;;;;;;;;;;5128735;27;20039;-75
2024/01/25 11:15:31;;;;;;;9.93;2.72;;;;;;;;;;5125828;27;20068;-74
2024/01/25 11:18:01;;;;;;;10.05;2.88;;;;;;;;;;5143907;27;20096;-75
2024/01/25 11:20:29;;;;;;;6.07;2.70;;;;;;;;;;5143832;27;20050;-74
2024/01/25 11:23:09;;;;;;;7.57;2.67;;;;;;;;;;5143810;27;20341;-73
2024/01/25 11:25:37;;;;;;;4.85;2.40;;;;;;;;;;5125504;27;20044;-74
2024/01/25 11:28:08;;;;;;;4.15;2.13;;;;;;;;;;5123666;28;20043;-76
2024/01/25 11:30:37;;;;;;;4.70;2.42;;;;;;;;;;5123028;28;20274;-79
2024/01/25 11:33:08;;;;;;;5.85;3.17;;;;;;;;;;5123271;28;20049;-78
2024/01/25 11:35:35;;;;;;;5.53;3.75;;;;;;;;;;5122674;28;20274;-76
2024/01/25 11:38:03;;;;;;;7.18;4.70;;;;;;;;;;5123287;28;20075;-78
2024/01/25 11:40:31;;;;;;;10.43;6.30;;;;;;;;;;5121961;28;20044;-72
2024/01/25 11:43:10;;;;;;;13.50;6.60;;;;;;;;;;5122671;28;20043;-79
2024/01/25 11:45:42;;;;;;;8.68;6.20;;;;;;;;;;5104369;28;20353;-72
2024/01/25 11:48:10;;;;;;;9.73;6.53;;;;;;;;;;5121150;28;20044;-74
2024/01/25 11:50:38;;;;;;;10.50;6.50;;;;;;;;;;5123022;28;20346;-73
2024/01/25 11:53:04;;;;;;;9.50;6.68;;;;;;;;;;5122734;28;20075;-74
2024/01/25 11:55:31;;;;;;;11.32;7.03;;;;;;;;;;5122415;28;20050;-74
2024/01/25 11:57:58;;;;;;;9.75;6.75;;;;;;;;;;5122824;28;20051;-74
2024/01/25 12:00:25;;;;;;;10.85;6.75;;;;;;;;;;5122843;28;20043;-74
2024/01/25 12:02:52;;;;;;;9.85;6.47;;;;;;;;;;5112212;27;20082;-74
2024/01/25 12:05:20;;;;;;;10.07;6.88;;;;;;;;;;5143362;27;20057;-79
2024/01/25 12:07:47;;;;;;;10.55;6.95;;;;;;;;;;5143067;27;20248;-74
2024/01/25 12:10:17;;;;;;;9.98;6.45;;;;;;;;;;5142612;27;20043;-75
2024/01/25 12:12:44;;;;;;;11.48;6.68;;;;;;;;;;5143057;27;20097;-76
2024/01/25 12:15:12;;;;;;;11.80;6.38;;;;;;;;;;5142960;27;20088;-76
2024/01/25 12:17:40;;;;;;;14.07;7.65;;;;;;;;;;5143079;27;20271;-77
2024/01/25 12:20:10;;;;;;;11.15;6.95;;;;;;;;;;5124503;27;20074;-73
2024/01/25 12:22:38;;;;;;;10.60;7.22;;;;;;;;;;5143104;27;20076;-77
2024/01/25 12:25:09;;;;;;;9.77;6.70;;;;;;;;;;5124265;27;20273;-75
2024/01/25 12:27:41;;;;;;;11.23;7.22;;;;;;;;;;5124556;27;20077;-75
2024/01/25 12:30:08;;;;;;;10.05;6.65;;;;;;;;;;5068077;27;20333;-76
2024/01/25 12:32:35;;;;;;;15.52;8.32;;;;;;;;;;5061526;28;20324;-71
2024/01/25 12:35:03;;;;;;;12.73;8.00;;;;;;;;;;5053550;28;20117;-76
2024/01/25 12:37:30;;;;;;;12.82;8.45;;;;;;;;;;5060398;28;20119;-76
2024/01/25 12:39:57;;;;;;;13.40;8.50;;;;;;;;;;5061126;28;20088;-85
2024/01/25 12:42:25;;;;;;;12.77;8.70;;;;;;;;;;5064340;28;20051;-75
2024/01/25 12:45:09;;;;;;;12.77;8.18;;;;;;;;;;5061729;28;20135;-75
2024/01/25 12:47:36;;;;;;;14.70;8.43;;;;;;;;;;5079638;28;20049;-75
2024/01/25 12:50:03;;;;;;;12.68;7.95;;;;;;;;;;5076582;28;20045;-75
2024/01/25 12:52:30;;;;;;;11.82;8.32;;;;;;;;;;5061314;28;20045;-75
2024/01/25 12:54:58;;;;;;;14.25;7.82;;;;;;;;;;5060772;28;20056;-76
2024/01/25 12:57:24;;;;;;;12.52;8.00;;;;;;;;;;5076457;28;20337;-75
2024/01/25 12:59:51;;;;;;;10.02;7.30;;;;;;;;;;5076079;28;20097;-75
2024/01/25 13:02:18;;;;;;;12.13;7.30;;;;;;;;;;5064470;28;20290;-76
2024/01/25 13:04:45;;;;;;;8.50;6.05;;;;;;;;;;5080672;28;20075;-77
2024/01/25 13:07:11;;;;;;;7.95;4.53;;;;;;;;;;5080114;28;20044;-76
2024/01/25 13:09:38;;;;;;;5.40;2.90;;;;;;;;;;5080449;28;20063;-76
2024/01/25 13:12:08;;;;;;;5.68;2.88;;;;;;;;;;5070792;28;20352;-76
2024/01/25 13:14:35;;;;;;;3.72;1.90;;;;;;;;;;5063098;28;20423;-74
2024/01/25 13:17:02;;;;;;;2.72;1.88;;;;;;;;;;5063092;28;20308;-74
2024/01/25 13:19:28;;;;;;;5.85;2.10;;;;;;;;;;5066151;28;20112;-80
2024/01/25 13:21:56;;;;;;;2.70;1.80;;;;;;;;;;5079372;28;20057;-75
2024/01/25 13:24:23;;;;;;;3.28;2.03;;;;;;;;;;5079768;28;20045;-75
2024/01/25 13:26:50;;;;;;;3.38;2.25;;;;;;;;;;5080139;28;20044;-76
2024/01/25 13:29:16;;;;;;;3.53;2.10;;;;;;;;;;5063799;28;20053;-75
2024/01/25 13:31:43;;;;;;;3.63;2.20;;;;;;;;;;5060382;28;20044;-75
2024/01/25 13:34:10;;;;;;;4.97;2.15;;;;;;;;;;5059705;28;20423;-75
2024/01/25 13:36:37;;;;;;;3.65;2.03;;;;;;;;;;5061513;28;20333;-75
2024/01/25 13:39:04;;;;;;;3.03;2.08;;;;;;;;;;5059868;28;20302;-74
2024/01/25 13:41:30;;;;;;;3.30;2.17;;;;;;;;;;5059867;28;20044;-74
2024/01/25 13:43:57;;;;;;;5.07;2.17;;;;;;;;;;5060035;28;20108;-75
2024/01/25 13:46:24;;;;;;;3.42;2.30;;;;;;;;;;5076833;28;20045;-74
2024/01/25 13:48:52;;;;;;;3.30;2.28;;;;;;;;;;5080291;28;20044;-75
2024/01/25 13:51:19;;;;;;;5.57;2.33;;;;;;;;;;5062644;28;20072;-75
2024/01/25 13:53:47;;;;;;;7.75;2.90;;;;;;;;;;5058508;28;20064;-77
2024/01/25 13:56:14;;;;;;;4.50;2.80;;;;;;;;;;5058362;28;20063;-75
2024/01/25 13:58:41;;;;;;;6.68;2.90;;;;;;;;;;5058056;28;20049;-73
2024/01/25 14:01:08;;;;;;;5.65;2.95;;;;;;;;;;5056411;28;20041;-74
2024/01/25 14:03:34;;;;;;;4.13;2.95;;;;;;;;;;5058405;28;20056;-74
2024/01/25 14:06:04;;;;;;;4.65;2.83;;;;;;;;;;5056419;28;20341;-75
2024/01/25 14:08:32;;;;;;;5.43;3.10;;;;;;;;;;5058787;28;20045;-74
2024/01/25 14:10:58;;;;;;;6.20;3.20;;;;;;;;;;5058397;28;20376;-76
2024/01/25 14:13:25;;;;;;;6.03;3.20;;;;;;;;;;5059401;28;20258;-75
2024/01/25 14:15:52;;;;;;;5.80;3.22;;;;;;;;;;5058429;28;20098;-75
2024/01/25 14:18:19;;;;;;;5.68;3.45;;;;;;;;;;5059925;28;20048;-72
2024/01/25 14:20:46;;;;;;;5.55;3.55;;;;;;;;;;5064886;28;20052;-74
2024/01/25 14:23:13;;;;;;;4.97;3.03;;;;;;;;;;5065738;28;20045;-73
2024/01/25 14:25:40;;;;;;;4.40;3.20;;;;;;;;;;5075128;28;20050;-73
2024/01/25 14:28:07;;;;;;;4.20;2.72;;;;;;;;;;5069071;28;20112;-74
2024/01/25 14:30:34;;;;;;;5.32;3.00;;;;;;;;;;5061723;28;20226;-74
2024/01/25 14:33:00;;;;;;;3.65;2.30;;;;;;;;;;5059465;28;20385;-74
2024/01/25 14:35:30;;;;;;;5.50;2.42;;;;;;;;;;5064198;28;20059;-73
2024/01/25 14:37:57;;;;;;;8.03;2.80;;;;;;;;;;5079439;28;20095;-73
2024/01/25 14:40:24;;;;;;;4.55;2.60;;;;;;;;;;5079438;28;20293;-73
2024/01/25 14:43:11;;;;;;;4.00;2.40;;;;;;;;;;5079465;28;20099;-75